Honaunau, HI

9:24 PM HST on July 24, 2016 (GMT -1000)
Halemalu | | Change Station

Elev 1656 ft 19.50 °N, 155.91 °W | Updated 3 seconds ago

Partly Cloudy
Partly Cloudy
74.5 °F
Feels Like 73 °F
N
4.0
Wind Variable Wind from NW
Gusts 4.0 mph

Today
High -- | Low -- °F
--% Chance of Precip.
Yesterday
High -- | Low -- °F
Precip. -- in
Pressure 29.92 in
Visibility 10.0 miles
Clouds Few 3500 ft
Heat Index 73 °F
Dew Point 71 °F
Humidity 89%
Rainfall 0.46 in
Snow Depth Not available.
5:57 AM 7:02 PM
Waning Gibbous, 68% visible
METAR PHKO 250653Z 33009KT 10SM FEW035 28/24 A2992 RMK AO2 SLP132 T02830244
Pressure 29.92 in
Visibility 10.0 miles
Clouds Few 3500 ft
Heat Index 73 °F
Dew Point 71 °F
Humidity 89%
Rainfall 0.46 in
Snow Depth Not available.
5:57 AM 7:02 PM
Waning Gibbous, 68% visible
METAR PHKO 250653Z 33009KT 10SM FEW035 28/24 A2992 RMK AO2 SLP132 T02830244

10-Day Weather Forecast

Almanac

Astronomy

Jul. 24, 2016 Rise Set
Actual Time
Civil Twilight
Nautical Twilight
Astronomical Twilight
Moon
Length of Visible Light
Length of Day
Tomorrow will be .
, % of the Moon is Illuminated

Today's Extremes

State Highs State Lows

Community

WunderPhotos

Upload Photos

1,927,274 photos uploaded!

WunderBlog® & News

Nearby

Air Quality

  Air Quality AQ Index Pollutant
Not available.

Snow Depth

Station Depth Elevation

Earthquake Activity

City Distance Mag. Time & Date
Minimum magnitude displayed is 2.5.

Coastal Water Temperatures

Place Temperature

Stations

Nearby Weather Stations

Station Location Temp. Windchill Dew Point Humidity Wind Precip. Elev Updated Type
                   

Watches & Warnings

There are currently no watches in effect.